createdAt,value
2019-03-28T00:01:41.012Z,7.80
2019-03-28T00:04:10.648Z,7.84
2019-03-28T00:06:40.340Z,7.86
2019-03-28T00:09:10.120Z,7.86
2019-03-28T00:11:39.813Z,7.87
2019-03-28T00:14:09.755Z,7.88
2019-03-28T00:16:39.622Z,7.86
2019-03-28T00:19:09.267Z,7.82
2019-03-28T00:21:38.894Z,7.83
2019-03-28T00:24:13.310Z,7.84
2019-03-28T00:26:42.938Z,7.87
2019-03-28T00:29:12.560Z,7.88
2019-03-28T00:31:42.336Z,7.84
2019-03-28T00:34:11.963Z,7.80
2019-03-28T00:36:42.168Z,7.73
2019-03-28T00:39:11.935Z,7.67
2019-03-28T00:41:41.675Z,7.60
2019-03-28T00:44:11.573Z,7.55
2019-03-28T00:46:41.298Z,7.52
2019-03-28T00:49:10.977Z,7.52
2019-03-28T00:51:43.123Z,7.50
2019-03-28T00:54:12.429Z,7.45
2019-03-28T00:56:46.929Z,7.43
2019-03-28T00:59:14.394Z,7.42
2019-03-28T01:01:44.181Z,7.37
2019-03-28T01:04:13.935Z,7.37
2019-03-28T01:06:43.574Z,7.41
2019-03-28T01:09:14.137Z,7.47
2019-03-28T01:11:43.753Z,7.54
2019-03-28T01:14:13.559Z,7.55
2019-03-28T01:16:43.502Z,7.54
2019-03-28T01:19:13.187Z,7.54
2019-03-28T01:21:42.845Z,7.49
2019-03-28T01:24:12.519Z,7.49
2019-03-28T01:26:42.148Z,7.46
2019-03-28T01:29:11.772Z,7.47
2019-03-28T01:31:41.646Z,7.45
2019-03-28T01:34:11.337Z,7.40
2019-03-28T01:36:40.970Z,7.33
2019-03-28T01:39:10.644Z,7.26
2019-03-28T01:41:40.685Z,7.23
2019-03-28T01:44:10.877Z,7.21
2019-03-28T01:46:40.565Z,7.24
2019-03-28T01:49:11.158Z,7.23
2019-03-28T01:51:40.790Z,7.21
2019-03-28T01:54:11.195Z,7.15
2019-03-28T01:56:40.823Z,7.10
2019-03-28T01:59:10.628Z,7.07
2019-03-28T02:01:41.595Z,7.02
2019-03-28T02:04:11.606Z,6.97
2019-03-28T02:06:41.531Z,6.94
2019-03-28T02:09:11.317Z,6.90
2019-03-28T02:11:40.939Z,6.85
2019-03-28T02:14:12.357Z,6.84
2019-03-28T02:16:42.093Z,6.90
2019-03-28T02:19:11.830Z,6.90
2019-03-28T02:21:41.479Z,6.85
2019-03-28T02:24:11.246Z,6.86
2019-03-28T02:26:40.916Z,6.85
2019-03-28T02:29:10.538Z,6.85
2019-03-28T02:31:40.216Z,6.80
2019-03-28T02:34:09.953Z,6.77
2019-03-28T02:36:39.953Z,6.78
2019-03-28T02:39:10.398Z,6.78
2019-03-28T02:41:40.431Z,6.71
2019-03-28T02:44:10.267Z,6.65
2019-03-28T02:46:40.278Z,6.68
2019-03-28T02:49:09.891Z,6.72
2019-03-28T02:51:39.561Z,6.79
2019-03-28T02:54:09.309Z,6.85
2019-03-28T02:56:39.196Z,6.88
2019-03-28T02:59:08.831Z,6.91
2019-03-28T03:01:38.510Z,6.88
2019-03-28T03:04:08.507Z,6.91
2019-03-28T03:06:38.390Z,6.94
2019-03-28T03:09:10.080Z,6.94
2019-03-28T03:11:42.812Z,6.97
2019-03-28T03:14:12.471Z,6.98
2019-03-28T03:16:42.549Z,7.02
2019-03-28T03:19:12.165Z,7.05
2019-03-28T03:21:41.980Z,7.06
2019-03-28T03:24:12.344Z,7.10
2019-03-28T03:26:42.238Z,7.11
2019-03-28T03:29:12.457Z,7.13
2019-03-28T03:31:42.136Z,7.16
2019-03-28T03:34:11.757Z,7.15
2019-03-28T03:36:41.378Z,7.03
2019-03-28T03:39:11.174Z,6.94
2019-03-28T03:41:40.859Z,6.87
2019-03-28T03:44:10.478Z,6.84
2019-03-28T03:46:40.176Z,6.79
2019-03-28T03:49:10.096Z,6.76
2019-03-28T03:51:40.645Z,6.73
2019-03-28T03:54:10.562Z,6.69
2019-03-28T03:56:40.298Z,6.69
2019-03-28T03:59:10.140Z,6.69
2019-03-28T04:01:42.360Z,6.70
2019-03-28T04:04:12.123Z,6.70
2019-03-28T04:06:42.690Z,6.63
2019-03-28T04:09:12.491Z,6.61
2019-03-28T04:11:42.816Z,6.62
2019-03-28T04:14:12.732Z,6.63
2019-03-28T04:16:42.747Z,6.65
2019-03-28T04:19:13.501Z,6.67
2019-03-28T04:21:43.820Z,6.62
2019-03-28T04:24:13.862Z,6.57
2019-03-28T04:26:44.020Z,6.55
2019-03-28T04:29:13.783Z,6.55
2019-03-28T04:31:44.110Z,6.56
2019-03-28T04:34:14.030Z,6.61
2019-03-28T04:36:44.335Z,6.59
2019-03-28T04:39:14.972Z,6.57
2019-03-28T04:41:44.785Z,6.54
2019-03-28T04:44:14.593Z,6.55
2019-03-28T04:46:45.372Z,6.64
2019-03-28T04:49:15.889Z,6.60
2019-03-28T04:51:45.781Z,6.57
2019-03-28T04:54:15.593Z,6.55
2019-03-28T04:56:45.523Z,6.57
2019-03-28T04:59:15.455Z,6.61
2019-03-28T05:01:59.440Z,6.66
2019-03-28T05:04:17.000Z,6.69
2019-03-28T05:06:47.086Z,6.72
2019-03-28T05:09:17.040Z,6.71
2019-03-28T05:11:47.161Z,6.74
2019-03-28T05:14:17.592Z,6.84
2019-03-28T05:16:48.453Z,6.90
2019-03-28T05:19:18.353Z,6.90
2019-03-28T05:21:48.227Z,6.93
2019-03-28T05:24:18.077Z,6.90
2019-03-28T05:26:48.007Z,6.85
2019-03-28T05:29:17.812Z,6.90
2019-03-28T05:31:47.637Z,6.90
2019-03-28T05:34:17.543Z,6.94
2019-03-28T05:36:47.760Z,7.02
2019-03-28T05:39:17.577Z,7.02
2019-03-28T05:41:47.491Z,7.05
2019-03-28T05:44:17.945Z,7.10
2019-03-28T05:46:48.043Z,7.13
2019-03-28T05:49:17.862Z,7.13
2019-03-28T05:51:47.681Z,7.03
2019-03-28T05:54:17.417Z,6.98
2019-03-28T05:56:47.053Z,6.96
2019-03-28T05:59:16.826Z,6.95
2019-03-28T06:01:46.493Z,7.05
2019-03-28T06:04:16.117Z,7.06
2019-03-28T06:06:45.917Z,6.99
2019-03-28T06:09:15.602Z,7.00
2019-03-28T06:11:45.226Z,7.08
2019-03-28T06:14:14.851Z,7.17
2019-03-28T06:16:44.515Z,7.17
2019-03-28T06:19:14.143Z,7.20
2019-03-28T06:21:43.769Z,7.23
2019-03-28T06:24:13.448Z,7.32
2019-03-28T06:26:43.406Z,7.35
2019-03-28T06:29:23.260Z,7.35
2019-03-28T06:31:54.592Z,7.40
2019-03-28T06:34:15.926Z,7.41
2019-03-28T06:36:45.663Z,7.53
2019-03-28T06:39:16.429Z,7.65
2019-03-28T06:41:46.133Z,7.82
2019-03-28T06:44:15.771Z,8.03
2019-03-28T06:46:45.483Z,8.21
2019-03-28T06:49:15.142Z,8.39
2019-03-28T06:51:46.507Z,8.53
2019-03-28T06:54:16.174Z,8.68
2019-03-28T06:56:46.168Z,8.82
2019-03-28T06:59:16.529Z,8.95
2019-03-28T07:01:46.420Z,9.01
2019-03-28T07:04:16.607Z,9.08
2019-03-28T07:06:46.239Z,9.10
2019-03-28T07:09:16.782Z,9.12
2019-03-28T07:11:46.692Z,9.16
2019-03-28T07:14:16.355Z,9.21
2019-03-28T07:16:45.965Z,9.26
2019-03-28T07:19:15.712Z,9.33
2019-03-28T07:21:45.339Z,9.38
2019-03-28T07:24:15.572Z,9.43
2019-03-28T07:26:45.314Z,9.53
2019-03-28T07:29:15.533Z,9.57
2019-03-28T07:31:45.204Z,9.61
2019-03-28T07:34:14.939Z,9.63
2019-03-28T07:36:44.994Z,9.75
2019-03-28T07:39:14.867Z,9.89
2019-03-28T07:41:44.798Z,10.07
2019-03-28T07:44:14.690Z,10.11
2019-03-28T07:46:47.399Z,10.17
2019-03-28T07:49:15.711Z,10.23
2019-03-28T07:51:45.343Z,10.34
2019-03-28T07:54:15.224Z,10.24
2019-03-28T07:56:45.615Z,10.20
2019-03-28T07:59:16.025Z,10.29
2019-03-28T08:01:45.697Z,10.38
2019-03-28T08:04:15.327Z,10.31
2019-03-28T08:06:50.119Z,10.27
2019-03-28T08:09:17.709Z,10.40
2019-03-28T08:11:48.426Z,10.38
2019-03-28T08:14:18.261Z,10.34
2019-03-28T08:16:48.144Z,10.54
2019-03-28T08:19:18.338Z,10.66
2019-03-28T08:21:48.080Z,10.68
2019-03-28T08:24:17.786Z,10.69
2019-03-28T08:26:47.423Z,10.79
2019-03-28T08:29:17.179Z,10.97
2019-03-28T08:31:48.497Z,11.15
2019-03-28T08:34:18.864Z,11.09
2019-03-28T08:36:48.782Z,11.07
2019-03-28T08:39:18.993Z,11.04
2019-03-28T08:41:49.005Z,10.97
2019-03-28T08:44:22.481Z,11.03
2019-03-28T08:46:51.773Z,10.95
2019-03-28T08:49:22.087Z,10.85
2019-03-28T08:51:52.014Z,10.83
2019-03-28T08:54:22.080Z,10.77
2019-03-28T08:56:51.723Z,10.63
2019-03-28T08:59:21.557Z,10.61
2019-03-28T09:01:51.226Z,10.70
2019-03-28T09:04:20.903Z,10.86
2019-03-28T09:06:50.627Z,10.95
2019-03-28T09:09:21.373Z,10.96
2019-03-28T09:11:51.595Z,10.98
2019-03-28T09:14:21.297Z,10.88
2019-03-28T09:16:51.156Z,10.85
2019-03-28T09:19:20.946Z,10.89
2019-03-28T09:21:50.627Z,10.94
2019-03-28T09:24:20.296Z,10.98
2019-03-28T09:26:50.981Z,10.94
2019-03-28T09:29:20.716Z,10.88
2019-03-28T09:31:50.575Z,10.76
2019-03-28T09:34:20.591Z,10.62
2019-03-28T09:36:51.819Z,10.54
2019-03-28T09:39:24.743Z,10.49
2019-03-28T09:41:52.872Z,10.44
2019-03-28T09:44:23.609Z,10.39
2019-03-28T09:46:53.366Z,10.30
2019-03-28T09:49:22.996Z,10.23
2019-03-28T09:51:52.873Z,10.22
2019-03-28T09:54:22.578Z,10.23
2019-03-28T09:56:52.282Z,10.26
2019-03-28T09:59:22.092Z,10.33
2019-03-28T10:01:51.966Z,10.45
2019-03-28T10:04:21.566Z,10.51
2019-03-28T10:06:51.481Z,10.52
2019-03-28T10:09:21.241Z,10.57
2019-03-28T10:11:50.904Z,10.62
2019-03-28T10:14:20.522Z,10.68
2019-03-28T10:16:51.379Z,10.71
2019-03-28T10:19:21.002Z,10.79
2019-03-28T10:21:50.790Z,10.83
2019-03-28T10:24:20.520Z,10.90
2019-03-28T10:26:50.153Z,10.95
2019-03-28T10:29:19.770Z,11.02
2019-03-28T10:31:49.724Z,11.05
2019-03-28T10:34:19.591Z,11.13
2019-03-28T10:36:49.216Z,11.19
2019-03-28T10:39:18.977Z,11.22
2019-03-28T10:41:48.596Z,11.26
2019-03-28T10:44:18.285Z,11.28
2019-03-28T10:46:48.314Z,11.31
2019-03-28T10:49:18.028Z,11.38
2019-03-28T10:51:47.633Z,11.39
2019-03-28T10:54:20.617Z,11.44
2019-03-28T10:56:51.989Z,11.47
2019-03-28T10:59:23.816Z,11.53
2019-03-28T11:01:51.835Z,11.58
2019-03-28T11:04:22.554Z,11.61
2019-03-28T11:06:52.806Z,11.69
2019-03-28T11:09:25.942Z,11.71
2019-03-28T11:11:55.828Z,11.71
2019-03-28T11:14:25.467Z,11.70
2019-03-28T11:16:56.422Z,11.75
2019-03-28T11:19:28.569Z,11.94
2019-03-28T11:21:58.202Z,12.01
2019-03-28T11:24:28.537Z,12.06
2019-03-28T11:26:58.156Z,12.11
2019-03-28T11:29:29.051Z,12.17
2019-03-28T11:31:58.753Z,12.25
2019-03-28T11:34:28.509Z,12.34
2019-03-28T11:36:58.574Z,12.47
2019-03-28T11:39:30.308Z,12.61
2019-03-28T11:42:02.688Z,12.68
2019-03-28T11:44:32.314Z,12.74
2019-03-28T11:47:02.138Z,12.81
2019-03-28T11:49:31.760Z,12.93
2019-03-28T11:52:01.675Z,13.10
2019-03-28T11:54:33.376Z,13.23
2019-03-28T11:57:03.010Z,13.30
2019-03-28T11:59:33.224Z,13.42
2019-03-28T12:02:19.042Z,13.53
2019-03-28T12:04:34.719Z,13.63
2019-03-28T12:07:06.040Z,13.72
2019-03-28T12:09:36.107Z,13.86
2019-03-28T12:12:06.928Z,14.00
2019-03-28T12:14:36.811Z,14.19
2019-03-28T12:17:06.545Z,14.41
2019-03-28T12:19:36.249Z,14.58
2019-03-28T12:22:05.915Z,14.69
2019-03-28T12:24:36.523Z,14.81
2019-03-28T12:27:06.983Z,14.98
2019-03-28T12:29:36.507Z,15.20
2019-03-28T12:32:13.873Z,15.41
2019-03-28T12:34:37.611Z,15.59
2019-03-28T12:37:08.294Z,15.84
2019-03-28T12:39:37.998Z,16.13
2019-03-28T12:42:07.977Z,16.08
2019-03-28T12:44:37.663Z,16.12
2019-03-28T12:47:07.476Z,16.14
2019-03-28T12:49:37.107Z,17.98
2019-03-28T12:52:07.126Z,20.62
2019-03-28T12:54:36.784Z,23.06
2019-03-28T12:57:06.533Z,24.57
2019-03-28T12:59:36.231Z,27.35
2019-03-28T13:02:06.028Z,26.83
2019-03-28T13:04:35.694Z,27.44
2019-03-28T13:07:05.627Z,25.49
2019-03-28T13:09:35.858Z,25.10
2019-03-28T13:12:06.562Z,28.18
2019-03-28T13:14:36.219Z,30.87
2019-03-28T13:17:06.085Z,31.31
2019-03-28T13:19:35.894Z,30.47
2019-03-28T13:22:05.658Z,32.36
2019-03-28T13:24:35.450Z,34.54
2019-03-28T13:27:05.717Z,35.87
2019-03-28T13:29:35.350Z,32.42
2019-03-28T13:32:05.031Z,29.53
2019-03-28T13:34:37.043Z,27.91
2019-03-28T13:37:08.956Z,31.27
2019-03-28T13:39:38.848Z,33.92
2019-03-28T13:42:08.482Z,35.30
2019-03-28T13:44:38.244Z,35.80
2019-03-28T13:47:08.282Z,35.82
2019-03-28T13:49:37.918Z,37.55
2019-03-28T13:52:07.937Z,39.10
2019-03-28T13:54:38.199Z,40.50
2019-03-28T13:57:07.868Z,41.29
2019-03-28T13:59:37.845Z,42.01
2019-03-28T14:02:07.759Z,42.64
2019-03-28T14:04:37.592Z,43.08
2019-03-28T14:07:07.166Z,43.56
2019-03-28T14:09:36.847Z,43.72
2019-03-28T14:12:06.547Z,43.52
2019-03-28T14:14:36.192Z,43.29
2019-03-28T14:17:05.878Z,42.95
2019-03-28T14:19:35.500Z,42.91
2019-03-28T14:22:05.294Z,42.70
2019-03-28T14:24:34.955Z,42.29
2019-03-28T14:27:04.592Z,42.55
2019-03-28T14:29:34.226Z,42.70
2019-03-28T14:32:04.348Z,42.92
2019-03-28T14:34:34.063Z,43.22
2019-03-28T14:37:03.718Z,43.52
2019-03-28T14:39:33.420Z,43.30
2019-03-28T14:42:03.386Z,41.88
2019-03-28T14:44:33.200Z,42.18
2019-03-28T14:47:03.014Z,42.35
2019-03-28T14:49:32.651Z,40.71
2019-03-28T14:52:03.609Z,40.28
2019-03-28T14:54:33.770Z,41.12
2019-03-28T14:57:03.952Z,41.42
2019-03-28T14:59:34.645Z,41.32
2019-03-28T15:02:07.541Z,41.89
2019-03-28T15:04:38.728Z,42.24
2019-03-28T15:07:08.397Z,42.36
2019-03-28T15:09:38.264Z,41.75
2019-03-28T15:12:08.178Z,41.71
2019-03-28T15:14:37.836Z,41.21
2019-03-28T15:17:08.048Z,40.01
2019-03-28T15:19:37.797Z,38.40
2019-03-28T15:22:07.993Z,36.29
2019-03-28T15:24:38.230Z,35.30
2019-03-28T15:27:08.126Z,36.45
2019-03-28T15:29:37.818Z,36.90
2019-03-28T15:32:07.316Z,37.31
2019-03-28T15:34:38.294Z,37.83
2019-03-28T15:37:08.035Z,37.85
2019-03-28T15:39:37.835Z,37.41
2019-03-28T15:42:07.478Z,36.22
2019-03-28T15:44:39.531Z,35.07
2019-03-28T15:47:09.403Z,32.31
2019-03-28T15:49:39.043Z,29.23
2019-03-28T15:52:08.686Z,26.76
2019-03-28T15:54:38.356Z,24.87
2019-03-28T15:57:08.352Z,23.33
2019-03-28T15:59:38.194Z,22.05
2019-03-28T16:02:08.154Z,20.88
2019-03-28T16:04:38.139Z,19.93
2019-03-28T16:07:08.013Z,19.08
2019-03-28T16:09:37.718Z,18.36
2019-03-28T16:12:07.359Z,17.76
2019-03-28T16:14:37.108Z,17.21
2019-03-28T16:17:07.361Z,16.69
2019-03-28T16:19:37.167Z,16.25
2019-03-28T16:22:06.986Z,15.92
2019-03-28T16:24:37.514Z,15.68
2019-03-28T16:27:07.181Z,15.55
2019-03-28T16:29:37.340Z,15.42
2019-03-28T16:32:07.427Z,15.27
2019-03-28T16:34:37.915Z,15.06
2019-03-28T16:37:08.407Z,14.82
2019-03-28T16:39:38.078Z,14.50
2019-03-28T16:42:07.700Z,14.22
2019-03-28T16:44:37.357Z,13.94
2019-03-28T16:47:07.153Z,13.63
2019-03-28T16:49:37.912Z,13.37
2019-03-28T16:52:07.812Z,13.10
2019-03-28T16:54:46.159Z,12.78
2019-03-28T16:57:16.751Z,12.48
2019-03-28T16:59:46.587Z,12.24
2019-03-28T17:02:17.014Z,12.04
2019-03-28T17:04:46.633Z,11.83
2019-03-28T17:07:16.382Z,11.64
2019-03-28T17:09:46.381Z,11.47
2019-03-28T17:12:15.989Z,11.31
2019-03-28T17:14:45.896Z,11.16
2019-03-28T17:17:16.031Z,11.04
2019-03-28T17:19:46.093Z,10.94
2019-03-28T17:22:16.769Z,10.84
2019-03-28T17:24:46.578Z,10.73
2019-03-28T17:27:16.237Z,10.67
2019-03-28T17:29:45.890Z,10.64
2019-03-28T17:32:15.614Z,10.59
2019-03-28T17:34:47.811Z,10.51
2019-03-28T17:37:17.987Z,10.43
2019-03-28T17:39:52.478Z,10.35
2019-03-28T17:42:24.036Z,10.29
2019-03-28T17:44:54.339Z,10.23
2019-03-28T17:47:26.202Z,10.14
2019-03-28T17:49:56.451Z,10.11
2019-03-28T17:52:27.732Z,10.06
2019-03-28T17:54:58.339Z,9.99
2019-03-28T17:57:28.540Z,9.94
2019-03-28T18:00:00.637Z,9.88
2019-03-28T18:02:30.669Z,9.86
2019-03-28T18:05:09.063Z,9.83
2019-03-28T18:07:35.513Z,9.82
2019-03-28T18:10:07.885Z,9.81
2019-03-28T18:12:42.225Z,9.78
2019-03-28T18:15:12.944Z,9.74
2019-03-28T18:17:43.647Z,9.68
2019-03-28T18:20:13.829Z,9.63
2019-03-28T18:22:43.725Z,9.50
2019-03-28T18:25:13.505Z,9.46
2019-03-28T18:27:44.905Z,9.43
2019-03-28T18:30:15.314Z,9.33
2019-03-28T18:32:49.900Z,9.25
2019-03-28T18:35:20.320Z,9.18
2019-03-28T18:37:49.955Z,9.07
2019-03-28T18:40:20.728Z,9.01
2019-03-28T18:42:50.566Z,8.97
2019-03-28T18:45:20.368Z,8.96
2019-03-28T18:47:50.055Z,8.92
2019-03-28T18:50:20.132Z,8.90
2019-03-28T18:52:49.975Z,8.86
2019-03-28T18:55:20.794Z,8.84
2019-03-28T18:57:50.546Z,8.81
2019-03-28T19:00:21.261Z,8.76
2019-03-28T19:02:50.968Z,8.73
2019-03-28T19:05:20.596Z,8.71
2019-03-28T19:07:50.213Z,8.68
2019-03-28T19:10:20.963Z,8.66
2019-03-28T19:12:50.822Z,8.73
2019-03-28T19:15:20.824Z,8.78
2019-03-28T19:17:50.555Z,8.92
2019-03-28T19:20:20.884Z,9.04
2019-03-28T19:22:50.521Z,9.07
2019-03-28T19:25:21.860Z,9.10
2019-03-28T19:27:51.620Z,9.12
2019-03-28T19:30:32.991Z,9.17
2019-03-28T19:33:06.838Z,9.19
2019-03-28T19:35:36.784Z,9.17
2019-03-28T19:38:09.344Z,9.17
2019-03-28T19:40:39.123Z,9.18
2019-03-28T19:43:19.856Z,9.18
2019-03-28T19:45:40.109Z,9.16
2019-03-28T19:48:09.902Z,9.15
2019-03-28T19:50:39.522Z,9.17
2019-03-28T19:53:11.814Z,9.11
2019-03-28T19:55:42.557Z,9.04
2019-03-28T19:58:13.760Z,9.05
2019-03-28T20:00:46.299Z,9.02
2019-03-28T20:03:15.929Z,9.02
2019-03-28T20:05:48.020Z,9.03
2019-03-28T20:08:19.815Z,9.03
2019-03-28T20:10:50.953Z,9.05
2019-03-28T20:13:20.562Z,9.08
2019-03-28T20:15:50.262Z,9.14
2019-03-28T20:18:22.547Z,9.15
2019-03-28T20:20:55.572Z,8.99
2019-03-28T20:23:27.013Z,8.88
2019-03-28T20:25:56.977Z,8.80
2019-03-28T20:28:27.059Z,8.72
2019-03-28T20:30:56.933Z,8.69
2019-03-28T20:33:27.802Z,8.60
2019-03-28T20:36:18.857Z,8.59
2019-03-28T20:38:29.788Z,8.56
2019-03-28T20:40:59.460Z,8.48
2019-03-28T20:43:29.208Z,8.46
2019-03-28T20:45:59.010Z,8.43
2019-03-28T20:48:29.609Z,8.39
2019-03-28T20:51:06.295Z,8.35
2019-03-28T20:53:37.926Z,8.32
2019-03-28T20:56:08.304Z,8.33
2019-03-28T20:58:38.948Z,8.36
2019-03-28T21:01:08.630Z,8.34
2019-03-28T21:03:38.407Z,8.32
2019-03-28T21:06:15.368Z,8.36
2019-03-28T21:08:41.087Z,8.43
2019-03-28T21:11:10.991Z,8.40
2019-03-28T21:13:40.773Z,8.41
2019-03-28T21:16:11.788Z,8.39
2019-03-28T21:18:41.683Z,8.33
2019-03-28T21:21:11.608Z,8.32
2019-03-28T21:23:41.307Z,8.32
2019-03-28T21:26:12.075Z,8.35
2019-03-28T21:28:47.469Z,8.36
2019-03-28T21:31:15.757Z,8.37
2019-03-28T21:33:45.438Z,8.40
2019-03-28T21:36:28.690Z,8.40
2019-03-28T21:38:46.577Z,8.38
2019-03-28T21:41:16.670Z,8.41
2019-03-28T21:43:47.016Z,8.41
2019-03-28T21:46:17.039Z,8.34
2019-03-28T21:48:46.652Z,8.30
2019-03-28T21:51:17.182Z,8.29
2019-03-28T21:53:46.869Z,8.25
2019-03-28T21:56:16.495Z,8.19
2019-03-28T21:58:46.570Z,8.17
2019-03-28T22:01:16.228Z,8.18
2019-03-28T22:03:46.131Z,8.19
2019-03-28T22:06:15.752Z,8.17
2019-03-28T22:08:45.444Z,8.16
2019-03-28T22:11:15.402Z,8.17
2019-03-28T22:13:45.861Z,8.17
2019-03-28T22:16:15.509Z,8.11
2019-03-28T22:18:45.196Z,8.14
2019-03-28T22:21:14.926Z,8.20
2019-03-28T22:23:44.865Z,8.25
2019-03-28T22:26:14.892Z,8.32
2019-03-28T22:28:44.511Z,8.36
2019-03-28T22:31:14.351Z,8.39
2019-03-28T22:33:44.356Z,8.42
2019-03-28T22:36:14.598Z,8.47
2019-03-28T22:38:44.337Z,8.50
2019-03-28T22:41:14.025Z,8.54
2019-03-28T22:43:43.794Z,8.55
2019-03-28T22:46:13.715Z,8.57
2019-03-28T22:48:44.561Z,8.59
2019-03-28T22:51:15.721Z,8.57
2019-03-28T22:53:45.574Z,8.46
2019-03-28T22:56:15.199Z,8.35
2019-03-28T22:58:44.802Z,8.28
2019-03-28T23:01:14.520Z,8.28
2019-03-28T23:03:44.204Z,8.29
2019-03-28T23:06:13.926Z,8.33
2019-03-28T23:08:43.998Z,8.34
2019-03-28T23:11:13.943Z,8.37
2019-03-28T23:13:43.894Z,8.38
2019-03-28T23:16:13.569Z,8.43
2019-03-28T23:18:43.943Z,8.49
2019-03-28T23:21:15.187Z,8.52
2019-03-28T23:23:45.685Z,8.54
2019-03-28T23:26:15.385Z,8.58
2019-03-28T23:28:45.106Z,8.59
2019-03-28T23:31:14.948Z,8.61
2019-03-28T23:33:44.634Z,8.60
2019-03-28T23:36:14.243Z,8.61
2019-03-28T23:38:45.869Z,8.60
2019-03-28T23:41:15.577Z,8.59
2019-03-28T23:43:45.210Z,8.59
2019-03-28T23:46:14.889Z,8.58
2019-03-28T23:48:45.048Z,8.59
2019-03-28T23:51:15.145Z,8.59
2019-03-28T23:53:44.784Z,8.60
2019-03-28T23:56:14.398Z,8.60
2019-03-28T23:58:44.129Z,8.60
